sensor_id;sensor_type;location;lat;lon;timestamp;pressure;altitude;pressure_sealevel;temperature;humidity
68594;BME280;55563;52.416;13.548;2024-03-25T00:00:36;99395.13;;;6.06;100.00
68594;BME280;55563;52.416;13.548;2024-03-25T00:02:38;99399.56;;;6.10;100.00
68594;BME280;55563;52.416;13.548;2024-03-25T00:04:39;99401.66;;;6.13;100.00
68594;BME280;55563;52.416;13.548;2024-03-25T00:06:39;99401.88;;;5.92;100.00
68594;BME280;55563;52.416;13.548;2024-03-25T00:08:40;99408.41;;;6.04;100.00
68594;BME280;55563;52.416;13.548;2024-03-25T00:10:40;99398.50;;;6.06;100.00
68594;BME280;55563;52.416;13.548;2024-03-25T00:12:41;99399.81;;;6.14;100.00
68594;BME280;55563;52.416;13.548;2024-03-25T00:14:41;99394.34;;;6.05;100.00
68594;BME280;55563;52.416;13.548;2024-03-25T00:16:42;99407.91;;;6.02;100.00
68594;BME280;55563;52.416;13.548;2024-03-25T00:18:42;99404.53;;;6.12;100.00
68594;BME280;55563;52.416;13.548;2024-03-25T00:20:44;99415.94;;;5.91;100.00
68594;BME280;55563;52.416;13.548;2024-03-25T00:22:44;99418.03;;;5.89;100.00
68594;BME280;55563;52.416;13.548;2024-03-25T00:24:46;99413.38;;;6.11;100.00
68594;BME280;55563;52.416;13.548;2024-03-25T00:26:46;99405.84;;;6.20;100.00
68594;BME280;55563;52.416;13.548;2024-03-25T00:28:47;99416.75;;;6.01;100.00
68594;BME280;55563;52.416;13.548;2024-03-25T00:30:48;99414.41;;;6.05;100.00
68594;BME280;55563;52.416;13.548;2024-03-25T00:32:49;99419.38;;;6.01;100.00
68594;BME280;55563;52.416;13.548;2024-03-25T00:34:50;99421.47;;;6.20;100.00
68594;BME280;55563;52.416;13.548;2024-03-25T00:36:51;99419.41;;;6.22;100.00
68594;BME280;55563;52.416;13.548;2024-03-25T00:38:52;99428.53;;;6.24;100.00
68594;BME280;55563;52.416;13.548;2024-03-25T00:40:52;99421.78;;;6.28;100.00
68594;BME280;55563;52.416;13.548;2024-03-25T00:42:53;99425.13;;;6.24;100.00
68594;BME280;55563;52.416;13.548;2024-03-25T00:44:54;99429.84;;;6.22;100.00
68594;BME280;55563;52.416;13.548;2024-03-25T00:46:55;99432.69;;;6.10;100.00
68594;BME280;55563;52.416;13.548;2024-03-25T00:48:55;99435.03;;;6.11;100.00
68594;BME280;55563;52.416;13.548;2024-03-25T00:50:56;99437.91;;;6.10;100.00
68594;BME280;55563;52.416;13.548;2024-03-25T00:52:57;99432.16;;;6.03;100.00
68594;BME280;55563;52.416;13.548;2024-03-25T00:54:57;99434.78;;;6.08;100.00
68594;BME280;55563;52.416;13.548;2024-03-25T00:56:58;99441.84;;;6.23;100.00
68594;BME280;55563;52.416;13.548;2024-03-25T00:58:58;99432.66;;;6.05;100.00
68594;BME280;55563;52.416;13.548;2024-03-25T01:01:02;99441.56;;;6.09;100.00
68594;BME280;55563;52.416;13.548;2024-03-25T01:03:03;99441.56;;;6.04;100.00
68594;BME280;55563;52.416;13.548;2024-03-25T01:05:05;99441.56;;;6.19;100.00
68594;BME280;55563;52.416;13.548;2024-03-25T01:07:05;99446.50;;;6.10;100.00
68594;BME280;55563;52.416;13.548;2024-03-25T01:09:06;99451.22;;;6.08;100.00
68594;BME280;55563;52.416;13.548;2024-03-25T01:11:07;99440.53;;;6.20;100.00
68594;BME280;55563;52.416;13.548;2024-03-25T01:13:08;99445.75;;;6.15;100.00
68594;BME280;55563;52.416;13.548;2024-03-25T01:15:09;99452.81;;;6.30;100.00
68594;BME280;55563;52.416;13.548;2024-03-25T01:17:11;99447.56;;;6.14;100.00
68594;BME280;55563;52.416;13.548;2024-03-25T01:19:11;99445.47;;;6.06;100.00
68594;BME280;55563;52.416;13.548;2024-03-25T01:21:11;99459.03;;;6.08;100.00
68594;BME280;55563;52.416;13.548;2024-03-25T01:23:12;99462.19;;;6.26;100.00
68594;BME280;55563;52.416;13.548;2024-03-25T01:25:13;99456.75;;;6.37;100.00
68594;BME280;55563;52.416;13.548;2024-03-25T01:27:13;99455.16;;;6.26;100.00
68594;BME280;55563;52.416;13.548;2024-03-25T01:29:14;99457.25;;;6.29;100.00
68594;BME280;55563;52.416;13.548;2024-03-25T01:31:14;99459.84;;;6.29;100.00
68594;BME280;55563;52.416;13.548;2024-03-25T01:33:15;99456.44;;;6.29;100.00
68594;BME280;55563;52.416;13.548;2024-03-25T01:35:15;99452.50;;;6.11;100.00
68594;BME280;55563;52.416;13.548;2024-03-25T01:37:16;99457.97;;;6.09;100.00
68594;BME280;55563;52.416;13.548;2024-03-25T01:39:17;99466.88;;;6.24;100.00
68594;BME280;55563;52.416;13.548;2024-03-25T01:41:21;99460.91;;;6.23;100.00
68594;BME280;55563;52.416;13.548;2024-03-25T01:43:23;99460.38;;;6.26;100.00
68594;BME280;55563;52.416;13.548;2024-03-25T01:45:25;99467.66;;;6.19;100.00
68594;BME280;55563;52.416;13.548;2024-03-25T01:47:25;99468.75;;;6.28;100.00
68594;BME280;55563;52.416;13.548;2024-03-25T01:49:26;99474.47;;;6.30;100.00
68594;BME280;55563;52.416;13.548;2024-03-25T01:51:27;99474.22;;;6.27;100.00
68594;BME280;55563;52.416;13.548;2024-03-25T01:53:29;99476.81;;;6.22;100.00
68594;BME280;55563;52.416;13.548;2024-03-25T01:55:32;99481.00;;;6.23;100.00
68594;BME280;55563;52.416;13.548;2024-03-25T01:57:35;99483.59;;;6.23;100.00
68594;BME280;55563;52.416;13.548;2024-03-25T01:59:38;99486.69;;;6.20;100.00
68594;BME280;55563;52.416;13.548;2024-03-25T02:01:39;99494.00;;;6.12;100.00
68594;BME280;55563;52.416;13.548;2024-03-25T02:03:43;99495.03;;;6.06;100.00
68594;BME280;55563;52.416;13.548;2024-03-25T02:05:44;99495.78;;;6.02;100.00
68594;BME280;55563;52.416;13.548;2024-03-25T02:07:45;99500.19;;;5.96;100.00
68594;BME280;55563;52.416;13.548;2024-03-25T02:09:47;99497.31;;;5.93;100.00
68594;BME280;55563;52.416;13.548;2024-03-25T02:11:48;99489.75;;;5.91;100.00
68594;BME280;55563;52.416;13.548;2024-03-25T02:13:50;99491.31;;;5.87;100.00
68594;BME280;55563;52.416;13.548;2024-03-25T02:15:51;99491.88;;;5.94;100.00
68594;BME280;55563;52.416;13.548;2024-03-25T02:17:53;99497.78;;;5.85;100.00
68594;BME280;55563;52.416;13.548;2024-03-25T02:19:54;99501.72;;;5.87;100.00
68594;BME280;55563;52.416;13.548;2024-03-25T02:21:54;99505.16;;;5.93;100.00
68594;BME280;55563;52.416;13.548;2024-03-25T02:23:56;99509.56;;;5.92;100.00
68594;BME280;55563;52.416;13.548;2024-03-25T02:25:59;99502.28;;;5.94;100.00
68594;BME280;55563;52.416;13.548;2024-03-25T02:28:00;99501.72;;;5.87;100.00
68594;BME280;55563;52.416;13.548;2024-03-25T02:30:09;99509.25;;;5.84;100.00
68594;BME280;55563;52.416;13.548;2024-03-25T02:32:12;99511.59;;;5.80;100.00
68594;BME280;55563;52.416;13.548;2024-03-25T02:34:13;99506.09;;;5.82;100.00
68594;BME280;55563;52.416;13.548;2024-03-25T02:36:14;99511.88;;;5.84;100.00
68594;BME280;55563;52.416;13.548;2024-03-25T02:38:15;99513.44;;;5.85;100.00
68594;BME280;55563;52.416;13.548;2024-03-25T02:40:18;99524.91;;;5.84;100.00
68594;BME280;55563;52.416;13.548;2024-03-25T02:42:19;99522.28;;;5.84;100.00
68594;BME280;55563;52.416;13.548;2024-03-25T02:44:21;99517.56;;;5.81;100.00
68594;BME280;55563;52.416;13.548;2024-03-25T02:46:22;99525.38;;;5.81;100.00
68594;BME280;55563;52.416;13.548;2024-03-25T02:48:22;99534.31;;;5.85;100.00
68594;BME280;55563;52.416;13.548;2024-03-25T02:50:23;99534.31;;;5.85;100.00
68594;BME280;55563;52.416;13.548;2024-03-25T02:52:24;99528.81;;;5.86;100.00
68594;BME280;55563;52.416;13.548;2024-03-25T02:54:25;99530.38;;;5.82;100.00
68594;BME280;55563;52.416;13.548;2024-03-25T02:56:25;99534.53;;;5.83;100.00
68594;BME280;55563;52.416;13.548;2024-03-25T02:58:25;99536.84;;;5.75;100.00
68594;BME280;55563;52.416;13.548;2024-03-25T03:00:26;99538.66;;;5.69;100.00
68594;BME280;55563;52.416;13.548;2024-03-25T03:02:27;99547.31;;;5.80;100.00
68594;BME280;55563;52.416;13.548;2024-03-25T03:04:28;99540.28;;;5.80;100.00
68594;BME280;55563;52.416;13.548;2024-03-25T03:06:28;99537.41;;;5.82;100.00
68594;BME280;55563;52.416;13.548;2024-03-25T03:08:28;99545.94;;;5.72;100.00
68594;BME280;55563;52.416;13.548;2024-03-25T03:10:29;99553.56;;;5.79;100.00
68594;BME280;55563;52.416;13.548;2024-03-25T03:12:30;99558.22;;;5.77;100.00
68594;BME280;55563;52.416;13.548;2024-03-25T03:14:31;99555.91;;;5.80;100.00
68594;BME280;55563;52.416;13.548;2024-03-25T03:16:31;99560.59;;;5.78;100.00
68594;BME280;55563;52.416;13.548;2024-03-25T03:18:32;99559.09;;;5.87;100.00
68594;BME280;55563;52.416;13.548;2024-03-25T03:20:32;99562.19;;;5.84;100.00
68594;BME280;55563;52.416;13.548;2024-03-25T03:22:33;99569.53;;;5.87;100.00
68594;BME280;55563;52.416;13.548;2024-03-25T03:24:33;99568.50;;;5.88;100.00
68594;BME280;55563;52.416;13.548;2024-03-25T03:26:34;99578.69;;;5.90;100.00
68594;BME280;55563;52.416;13.548;2024-03-25T03:28:34;99580.16;;;5.86;100.00
68594;BME280;55563;52.416;13.548;2024-03-25T03:30:35;99574.50;;;5.89;100.00
68594;BME280;55563;52.416;13.548;2024-03-25T03:32:35;99575.81;;;5.91;100.00
68594;BME280;55563;52.416;13.548;2024-03-25T03:34:36;99580.25;;;5.96;100.00
68594;BME280;55563;52.416;13.548;2024-03-25T03:36:36;99581.81;;;5.92;100.00
68594;BME280;55563;52.416;13.548;2024-03-25T03:38:37;99582.06;;;5.95;100.00
68594;BME280;55563;52.416;13.548;2024-03-25T03:40:37;99593.03;;;5.92;100.00
68594;BME280;55563;52.416;13.548;2024-03-25T03:42:38;99601.63;;;5.93;100.00
68594;BME280;55563;52.416;13.548;2024-03-25T03:44:38;99599.78;;;5.88;100.00
68594;BME280;55563;52.416;13.548;2024-03-25T03:46:39;99602.09;;;5.85;100.00
68594;BME280;55563;52.416;13.548;2024-03-25T03:48:39;99609.66;;;5.86;100.00
68594;BME280;55563;52.416;13.548;2024-03-25T03:50:41;99610.94;;;5.84;100.00
68594;BME280;55563;52.416;13.548;2024-03-25T03:52:42;99614.84;;;5.86;100.00
68594;BME280;55563;52.416;13.548;2024-03-25T03:54:42;99616.66;;;5.81;100.00
68594;BME280;55563;52.416;13.548;2024-03-25T03:56:43;99618.22;;;5.82;100.00
68594;BME280;55563;52.416;13.548;2024-03-25T03:58:43;99611.97;;;5.83;100.00
68594;BME280;55563;52.416;13.548;2024-03-25T04:00:44;99623.16;;;5.78;100.00
68594;BME280;55563;52.416;13.548;2024-03-25T04:02:44;99621.09;;;5.80;100.00
68594;BME280;55563;52.416;13.548;2024-03-25T04:04:45;99621.09;;;5.85;100.00
68594;BME280;55563;52.416;13.548;2024-03-25T04:06:46;99625.81;;;5.83;100.00
68594;BME280;55563;52.416;13.548;2024-03-25T04:08:46;99621.88;;;5.86;100.00
68594;BME280;55563;52.416;13.548;2024-03-25T04:10:47;99617.97;;;5.83;100.00
68594;BME280;55563;52.416;13.548;2024-03-25T04:12:47;99622.91;;;5.80;100.00
68594;BME280;55563;52.416;13.548;2024-03-25T04:14:48;99623.53;;;5.92;100.00
68594;BME280;55563;52.416;13.548;2024-03-25T04:16:49;99631.38;;;5.97;100.00
68594;BME280;55563;52.416;13.548;2024-03-25T04:18:51;99626.66;;;5.89;100.00
68594;BME280;55563;52.416;13.548;2024-03-25T04:20:52;99639.16;;;5.87;100.00
68594;BME280;55563;52.416;13.548;2024-03-25T04:22:52;99634.13;;;5.80;100.00
68594;BME280;55563;52.416;13.548;2024-03-25T04:24:53;99638.06;;;5.83;100.00
68594;BME280;55563;52.416;13.548;2024-03-25T04:26:54;99644.28;;;5.82;100.00
68594;BME280;55563;52.416;13.548;2024-03-25T04:28:55;99652.06;;;5.77;100.00
68594;BME280;55563;52.416;13.548;2024-03-25T04:30:55;99652.59;;;5.74;100.00
68594;BME280;55563;52.416;13.548;2024-03-25T04:32:56;99658.84;;;5.72;100.00
68594;BME280;55563;52.416;13.548;2024-03-25T04:34:56;99657.81;;;5.74;100.00
68594;BME280;55563;52.416;13.548;2024-03-25T04:36:57;99662.69;;;5.97;100.00
68594;BME280;55563;52.416;13.548;2024-03-25T04:38:57;99656.66;;;5.91;100.00
68594;BME280;55563;52.416;13.548;2024-03-25T04:40:58;99660.22;;;5.85;100.00
68594;BME280;55563;52.416;13.548;2024-03-25T04:42:58;99666.84;;;5.93;100.00
68594;BME280;55563;52.416;13.548;2024-03-25T04:44:59;99675.41;;;5.88;100.00
68594;BME280;55563;52.416;13.548;2024-03-25T04:46:59;99681.88;;;5.86;100.00
68594;BME280;55563;52.416;13.548;2024-03-25T04:49:00;99677.94;;;5.83;100.00
68594;BME280;55563;52.416;13.548;2024-03-25T04:51:00;99681.06;;;5.80;100.00
68594;BME280;55563;52.416;13.548;2024-03-25T04:53:01;99682.66;;;5.86;100.00
68594;BME280;55563;52.416;13.548;2024-03-25T04:55:02;99687.41;;;5.89;100.00
68594;BME280;55563;52.416;13.548;2024-03-25T04:57:03;99690.81;;;5.90;100.00
68594;BME280;55563;52.416;13.548;2024-03-25T04:59:03;99699.31;;;5.85;100.00
68594;BME280;55563;52.416;13.548;2024-03-25T05:01:04;99701.94;;;5.85;100.00
68594;BME280;55563;52.416;13.548;2024-03-25T05:03:05;99699.91;;;5.87;100.00
68594;BME280;55563;52.416;13.548;2024-03-25T05:05:06;99703.47;;;5.81;100.00
68594;BME280;55563;52.416;13.548;2024-03-25T05:07:08;99699.06;;;5.82;100.00
68594;BME280;55563;52.416;13.548;2024-03-25T05:09:08;99707.38;;;5.79;100.00
68594;BME280;55563;52.416;13.548;2024-03-25T05:11:09;99713.78;;;5.93;100.00
68594;BME280;55563;52.416;13.548;2024-03-25T05:13:09;99708.56;;;5.93;100.00
68594;BME280;55563;52.416;13.548;2024-03-25T05:15:10;99712.47;;;5.95;100.00
68594;BME280;55563;52.416;13.548;2024-03-25T05:17:11;99717.97;;;5.94;100.00
68594;BME280;55563;52.416;13.548;2024-03-25T05:19:12;99716.88;;;5.90;100.00
68594;BME280;55563;52.416;13.548;2024-03-25T05:21:12;99716.63;;;5.91;100.00
68594;BME280;55563;52.416;13.548;2024-03-25T05:23:13;99725.28;;;5.97;100.00
68594;BME280;55563;52.416;13.548;2024-03-25T05:25:13;99726.31;;;5.96;100.00
68594;BME280;55563;52.416;13.548;2024-03-25T05:27:14;99723.94;;;5.89;100.00
68594;BME280;55563;52.416;13.548;2024-03-25T05:29:14;99732.28;;;5.91;100.00
68594;BME280;55563;52.416;13.548;2024-03-25T05:31:15;99733.59;;;5.94;100.00
68594;BME280;55563;52.416;13.548;2024-03-25T05:33:16;99734.63;;;5.93;100.00
68594;BME280;55563;52.416;13.548;2024-03-25T05:35:16;99737.47;;;5.91;100.00
68594;BME280;55563;52.416;13.548;2024-03-25T05:37:17;99739.31;;;5.91;100.00
68594;BME280;55563;52.416;13.548;2024-03-25T05:39:17;99748.44;;;5.88;100.00
68594;BME280;55563;52.416;13.548;2024-03-25T05:41:18;99746.25;;;5.85;100.00
68594;BME280;55563;52.416;13.548;2024-03-25T05:43:19;99758.00;;;5.83;100.00
68594;BME280;55563;52.416;13.548;2024-03-25T05:45:20;99757.28;;;5.87;100.00
68594;BME280;55563;52.416;13.548;2024-03-25T05:47:21;99759.69;;;5.94;100.00
68594;BME280;55563;52.416;13.548;2024-03-25T05:49:21;99761.50;;;5.93;100.00
68594;BME280;55563;52.416;13.548;2024-03-25T05:51:22;99766.44;;;5.90;100.00
68594;BME280;55563;52.416;13.548;2024-03-25T05:53:23;99772.19;;;5.92;100.00
68594;BME280;55563;52.416;13.548;2024-03-25T05:55:23;99773.91;;;5.86;100.00
68594;BME280;55563;52.416;13.548;2024-03-25T05:57:24;99771.91;;;5.88;100.00
68594;BME280;55563;52.416;13.548;2024-03-25T05:59:25;99770.88;;;5.89;100.00
68594;BME280;55563;52.416;13.548;2024-03-25T06:01:26;99771.09;;;5.88;100.00
68594;BME280;55563;52.416;13.548;2024-03-25T06:03:27;99774.50;;;5.88;100.00
68594;BME280;55563;52.416;13.548;2024-03-25T06:05:27;99778.41;;;5.91;100.00
68594;BME280;55563;52.416;13.548;2024-03-25T06:07:28;99783.41;;;5.92;100.00
68594;BME280;55563;52.416;13.548;2024-03-25T06:09:28;99784.44;;;5.91;100.00
68594;BME280;55563;52.416;13.548;2024-03-25T06:11:29;99794.78;;;5.86;100.00
68594;BME280;55563;52.416;13.548;2024-03-25T06:13:30;99795.81;;;5.85;100.00
68594;BME280;55563;52.416;13.548;2024-03-25T06:15:31;99799.78;;;5.88;100.00
68594;BME280;55563;52.416;13.548;2024-03-25T06:17:31;99802.41;;;5.88;100.00
68594;BME280;55563;52.416;13.548;2024-03-25T06:19:32;99808.97;;;5.95;100.00
68594;BME280;55563;52.416;13.548;2024-03-25T06:21:32;99808.94;;;5.90;100.00
68594;BME280;55563;52.416;13.548;2024-03-25T06:23:33;99810.66;;;5.80;100.00
68594;BME280;55563;52.416;13.548;2024-03-25T06:25:33;99808.72;;;5.97;100.00
68594;BME280;55563;52.416;13.548;2024-03-25T06:27:37;99819.66;;;5.94;100.00
68594;BME280;55563;52.416;13.548;2024-03-25T06:29:37;99816.31;;;5.98;100.00
68594;BME280;55563;52.416;13.548;2024-03-25T06:31:38;99820.75;;;5.98;100.00
68594;BME280;55563;52.416;13.548;2024-03-25T06:33:58;99825.22;;;6.02;100.00
68594;BME280;55563;52.416;13.548;2024-03-25T06:36:19;99831.47;;;6.01;100.00
68594;BME280;55563;52.416;13.548;2024-03-25T06:38:20;99830.94;;;5.99;100.00
68594;BME280;55563;52.416;13.548;2024-03-25T06:40:20;99839.53;;;6.00;100.00
68594;BME280;55563;52.416;13.548;2024-03-25T06:42:22;99835.66;;;6.02;100.00
68594;BME280;55563;52.416;13.548;2024-03-25T06:44:23;99843.72;;;6.01;100.00
68594;BME280;55563;52.416;13.548;2024-03-25T06:46:25;99837.50;;;6.07;100.00
68594;BME280;55563;52.416;13.548;2024-03-25T06:48:26;99848.94;;;6.01;100.00
68594;BME280;55563;52.416;13.548;2024-03-25T06:50:26;99853.41;;;6.05;100.00
68594;BME280;55563;52.416;13.548;2024-03-25T06:52:28;99846.41;;;6.11;100.00
68594;BME280;55563;52.416;13.548;2024-03-25T06:54:29;99855.03;;;6.11;100.00
68594;BME280;55563;52.416;13.548;2024-03-25T06:56:30;99855.53;;;6.08;100.00
68594;BME280;55563;52.416;13.548;2024-03-25T06:58:31;99860.47;;;6.10;100.00
68594;BME280;55563;52.416;13.548;2024-03-25T07:00:31;99859.16;;;6.07;100.00
68594;BME280;55563;52.416;13.548;2024-03-25T07:02:32;99868.03;;;6.06;100.00
68594;BME280;55563;52.416;13.548;2024-03-25T07:04:32;99865.66;;;6.05;100.00
68594;BME280;55563;52.416;13.548;2024-03-25T07:06:33;99871.44;;;6.07;100.00
68594;BME280;55563;52.416;13.548;2024-03-25T07:08:33;99870.34;;;6.03;100.00
68594;BME280;55563;52.416;13.548;2024-03-25T07:10:34;99879.75;;;6.04;100.00
68594;BME280;55563;52.416;13.548;2024-03-25T07:12:34;99874.44;;;5.94;100.00
68594;BME280;55563;52.416;13.548;2024-03-25T07:14:35;99884.97;;;6.04;100.00
68594;BME280;55563;52.416;13.548;2024-03-25T07:16:35;99887.56;;;6.04;100.00
68594;BME280;55563;52.416;13.548;2024-03-25T07:18:36;99892.53;;;6.05;100.00
68594;BME280;55563;52.416;13.548;2024-03-25T07:20:36;99902.72;;;6.07;100.00
68594;BME280;55563;52.416;13.548;2024-03-25T07:22:38;99895.66;;;6.02;100.00
68594;BME280;55563;52.416;13.548;2024-03-25T07:24:38;99895.97;;;6.11;100.00
68594;BME280;55563;52.416;13.548;2024-03-25T07:26:39;99897.28;;;6.08;100.00
68594;BME280;55563;52.416;13.548;2024-03-25T07:28:39;99907.38;;;6.05;100.00
68594;BME280;55563;52.416;13.548;2024-03-25T07:30:41;99898.78;;;6.04;100.00
68594;BME280;55563;52.416;13.548;2024-03-25T07:32:42;99915.22;;;6.05;100.00
68594;BME280;55563;52.416;13.548;2024-03-25T07:34:46;99914.25;;;6.11;100.00
68594;BME280;55563;52.416;13.548;2024-03-25T07:36:46;99911.41;;;6.12;100.00
68594;BME280;55563;52.416;13.548;2024-03-25T07:38:48;99915.38;;;6.20;100.00
68594;BME280;55563;52.416;13.548;2024-03-25T07:40:49;99923.19;;;6.20;100.00
68594;BME280;55563;52.416;13.548;2024-03-25T07:42:49;99917.50;;;6.23;100.00
68594;BME280;55563;52.416;13.548;2024-03-25T07:44:50;99917.28;;;6.30;100.00
68594;BME280;55563;52.416;13.548;2024-03-25T07:46:50;99923.81;;;6.27;100.00
68594;BME280;55563;52.416;13.548;2024-03-25T07:48:52;99928.78;;;6.34;100.00
68594;BME280;55563;52.416;13.548;2024-03-25T07:50:52;99926.75;;;6.36;100.00
68594;BME280;55563;52.416;13.548;2024-03-25T07:52:53;99929.06;;;6.32;100.00
68594;BME280;55563;52.416;13.548;2024-03-25T07:54:54;99943.19;;;6.36;100.00
68594;BME280;55563;52.416;13.548;2024-03-25T07:56:55;99941.38;;;6.37;100.00
68594;BME280;55563;52.416;13.548;2024-03-25T07:58:56;99936.94;;;6.37;100.00
68594;BME280;55563;52.416;13.548;2024-03-25T08:00:56;99944.78;;;6.37;100.00
68594;BME280;55563;52.416;13.548;2024-03-25T08:02:57;99942.97;;;6.43;100.00
68594;BME280;55563;52.416;13.548;2024-03-25T08:04:57;99952.16;;;6.45;100.00
68594;BME280;55563;52.416;13.548;2024-03-25T08:06:59;99950.84;;;6.48;100.00
68594;BME280;55563;52.416;13.548;2024-03-25T08:09:00;99956.66;;;6.55;100.00
68594;BME280;55563;52.416;13.548;2024-03-25T08:11:00;99965.81;;;6.57;100.00
68594;BME280;55563;52.416;13.548;2024-03-25T08:13:01;99967.41;;;6.58;100.00
68594;BME280;55563;52.416;13.548;2024-03-25T08:15:01;99965.84;;;6.63;100.00
68594;BME280;55563;52.416;13.548;2024-03-25T08:17:03;99968.44;;;6.57;100.00
68594;BME280;55563;52.416;13.548;2024-03-25T08:19:04;99969.75;;;6.60;100.00
68594;BME280;55563;52.416;13.548;2024-03-25T08:21:04;99962.41;;;6.57;100.00
68594;BME280;55563;52.416;13.548;2024-03-25T08:23:05;99963.56;;;6.66;100.00
68594;BME280;55563;52.416;13.548;2024-03-25T08:25:07;99972.19;;;6.72;100.00
68594;BME280;55563;52.416;13.548;2024-03-25T08:27:08;99970.75;;;6.86;100.00
68594;BME280;55563;52.416;13.548;2024-03-25T08:29:09;99973.41;;;6.91;100.00
68594;BME280;55563;52.416;13.548;2024-03-25T08:31:10;99983.09;;;6.90;100.00
68594;BME280;55563;52.416;13.548;2024-03-25T08:33:10;99981.22;;;6.91;100.00
68594;BME280;55563;52.416;13.548;2024-03-25T08:35:11;99982.53;;;6.88;100.00
68594;BME280;55563;52.416;13.548;2024-03-25T08:37:12;99986.72;;;6.89;100.00
68594;BME280;55563;52.416;13.548;2024-03-25T08:39:12;99991.19;;;6.94;100.00
68594;BME280;55563;52.416;13.548;2024-03-25T08:41:14;99989.34;;;6.89;100.00
68594;BME280;55563;52.416;13.548;2024-03-25T08:43:15;99995.84;;;6.87;100.00
68594;BME280;55563;52.416;13.548;2024-03-25T08:45:16;99991.69;;;6.91;100.00
68594;BME280;55563;52.416;13.548;2024-03-25T08:47:17;99991.94;;;6.89;100.00
68594;BME280;55563;52.416;13.548;2024-03-25T08:49:17;100003.50;;;6.98;100.00
68594;BME280;55563;52.416;13.548;2024-03-25T08:51:18;100001.72;;;7.04;100.00
68594;BME280;55563;52.416;13.548;2024-03-25T08:53:18;100006.41;;;7.02;100.00
68594;BME280;55563;52.416;13.548;2024-03-25T08:55:19;100012.63;;;6.96;100.00
68594;BME280;55563;52.416;13.548;2024-03-25T08:57:19;100001.47;;;7.06;100.00
68594;BME280;55563;52.416;13.548;2024-03-25T08:59:20;100008.50;;;7.05;100.00
68594;BME280;55563;52.416;13.548;2024-03-25T09:01:21;100012.75;;;7.11;100.00
68594;BME280;55563;52.416;13.548;2024-03-25T09:03:24;100010.97;;;7.17;100.00
68594;BME280;55563;52.416;13.548;2024-03-25T09:05:28;100019.81;;;7.16;100.00
68594;BME280;55563;52.416;13.548;2024-03-25T09:07:28;100019.06;;;7.20;100.00
68594;BME280;55563;52.416;13.548;2024-03-25T09:09:29;100024.63;;;7.24;100.00
68594;BME280;55563;52.416;13.548;2024-03-25T09:11:50;100023.28;;;7.21;100.00
68594;BME280;55563;52.416;13.548;2024-03-25T09:13:51;100023.28;;;7.21;100.00
68594;BME280;55563;52.416;13.548;2024-03-25T09:15:51;100025.69;;;7.28;100.00
68594;BME280;55563;52.416;13.548;2024-03-25T09:17:54;100031.19;;;7.31;100.00
68594;BME280;55563;52.416;13.548;2024-03-25T09:19:55;100030.66;;;7.34;100.00
68594;BME280;55563;52.416;13.548;2024-03-25T09:21:56;100034.66;;;7.42;100.00
68594;BME280;55563;52.416;13.548;2024-03-25T09:23:56;100037.56;;;7.45;100.00
68594;BME280;55563;52.416;13.548;2024-03-25T09:25:58;100036.56;;;7.52;100.00
68594;BME280;55563;52.416;13.548;2024-03-25T09:27:59;100045.19;;;7.52;100.00
68594;BME280;55563;52.416;13.548;2024-03-25T09:29:59;100034.22;;;7.55;100.00
68594;BME280;55563;52.416;13.548;2024-03-25T09:32:00;100038.38;;;7.51;100.00
68594;BME280;55563;52.416;13.548;2024-03-25T09:34:00;100036.59;;;7.57;100.00
68594;BME280;55563;52.416;13.548;2024-03-25T09:36:01;100045.22;;;7.57;100.00
68594;BME280;55563;52.416;13.548;2024-03-25T09:38:01;100048.06;;;7.56;100.00
68594;BME280;55563;52.416;13.548;2024-03-25T09:40:03;100052.75;;;7.54;100.00
68594;BME280;55563;52.416;13.548;2024-03-25T09:42:07;100047.06;;;7.62;100.00
68594;BME280;55563;52.416;13.548;2024-03-25T09:44:08;100049.44;;;7.68;100.00
68594;BME280;55563;52.416;13.548;2024-03-25T09:46:10;100051.56;;;7.71;100.00
68594;BME280;55563;52.416;13.548;2024-03-25T09:48:11;100046.63;;;7.75;100.00
68594;BME280;55563;52.416;13.548;2024-03-25T09:50:13;100054.47;;;7.75;100.00
68594;BME280;55563;52.416;13.548;2024-03-25T09:52:17;100051.06;;;7.74;100.00
68594;BME280;55563;52.416;13.548;2024-03-25T09:54:19;100051.81;;;7.70;100.00
68594;BME280;55563;52.416;13.548;2024-03-25T09:56:19;100057.34;;;7.78;100.00
68594;BME280;55563;52.416;13.548;2024-03-25T09:58:20;100058.94;;;7.79;100.00
68594;BME280;55563;52.416;13.548;2024-03-25T10:00:22;100060.53;;;7.85;100.00
68594;BME280;55563;52.416;13.548;2024-03-25T10:02:22;100066.25;;;7.82;100.00
68594;BME280;55563;52.416;13.548;2024-03-25T10:04:27;100061.31;;;7.81;100.00
68594;BME280;55563;52.416;13.548;2024-03-25T10:06:27;100069.97;;;7.92;100.00
68594;BME280;55563;52.416;13.548;2024-03-25T10:08:28;100068.44;;;7.96;100.00
68594;BME280;55563;52.416;13.548;2024-03-25T10:10:30;100066.38;;;8.03;100.00
68594;BME280;55563;52.416;13.548;2024-03-25T10:12:32;100071.09;;;8.06;100.00
68594;BME280;55563;52.416;13.548;2024-03-25T10:14:32;100078.72;;;8.12;100.00
68594;BME280;55563;52.416;13.548;2024-03-25T10:16:33;100079.50;;;8.13;100.00
68594;BME280;55563;52.416;13.548;2024-03-25T10:18:33;100072.97;;;8.15;100.00
68594;BME280;55563;52.416;13.548;2024-03-25T10:20:34;100077.72;;;8.23;100.00
68594;BME280;55563;52.416;13.548;2024-03-25T10:22:42;100081.13;;;8.24;100.00
68594;BME280;55563;52.416;13.548;2024-03-25T10:24:44;100071.72;;;8.28;100.00
68594;BME280;55563;52.416;13.548;2024-03-25T10:26:49;100072.22;;;8.25;100.00
68594;BME280;55563;52.416;13.548;2024-03-25T10:28:59;100076.22;;;8.38;100.00
68594;BME280;55563;52.416;13.548;2024-03-25T10:31:03;100080.47;;;8.49;100.00